createdAt,value
2018-11-27T00:00:09.162Z,61.86
2018-11-27T00:02:36.997Z,62.29
2018-11-27T00:05:05.443Z,62.04
2018-11-27T00:07:33.124Z,62.12
2018-11-27T00:10:00.791Z,61.88
2018-11-27T00:12:28.570Z,61.34
2018-11-27T00:14:56.271Z,60.58
2018-11-27T00:17:23.958Z,60.91
2018-11-27T00:19:51.733Z,61.25
2018-11-27T00:22:19.489Z,61.24
2018-11-27T00:24:47.165Z,62.13
2018-11-27T00:27:14.854Z,63.08
2018-11-27T00:29:42.611Z,62.73
2018-11-27T00:32:10.385Z,62.57
2018-11-27T00:34:38.109Z,62.68
2018-11-27T00:37:05.869Z,62.46
2018-11-27T00:39:33.548Z,62.74
2018-11-27T00:42:01.311Z,62.88
2018-11-27T00:44:29.088Z,63.15
2018-11-27T00:46:56.807Z,63.01
2018-11-27T00:49:24.537Z,62.71
2018-11-27T00:51:52.356Z,61.97
2018-11-27T00:54:20.089Z,62.38
2018-11-27T00:56:48.386Z,62.33
2018-11-27T00:59:17.056Z,62.03
2018-11-27T01:01:44.836Z,62.38
2018-11-27T01:04:12.538Z,62.63
2018-11-27T01:06:40.222Z,62.20
2018-11-27T01:09:08.621Z,61.77
2018-11-27T01:11:36.827Z,61.11
2018-11-27T01:14:04.844Z,60.86
2018-11-27T01:16:32.641Z,60.86
2018-11-27T01:19:00.377Z,61.79
2018-11-27T01:21:28.125Z,61.27
2018-11-27T01:23:55.865Z,61.50
2018-11-27T01:26:23.618Z,62.32
2018-11-27T01:28:51.352Z,62.36
2018-11-27T01:31:19.121Z,62.59
2018-11-27T01:33:46.815Z,61.42
2018-11-27T01:36:14.572Z,61.27
2018-11-27T01:38:42.257Z,61.30
2018-11-27T01:41:09.968Z,61.10
2018-11-27T01:43:37.661Z,61.44
2018-11-27T01:46:06.464Z,60.41
2018-11-27T01:48:34.865Z,61.40
2018-11-27T01:51:02.518Z,60.63
2018-11-27T01:53:30.146Z,60.61
2018-11-27T01:55:57.809Z,60.53
2018-11-27T01:58:25.561Z,60.65
2018-11-27T02:00:53.258Z,60.92
2018-11-27T02:03:20.948Z,60.54
2018-11-27T02:05:48.743Z,60.29
2018-11-27T02:08:16.549Z,60.58
2018-11-27T02:10:44.271Z,61.43
2018-11-27T02:13:11.936Z,61.57
2018-11-27T02:15:39.664Z,62.23
2018-11-27T02:18:07.383Z,62.61
2018-11-27T02:20:36.263Z,62.05
2018-11-27T02:23:04.341Z,63.18
2018-11-27T02:25:32.105Z,63.55
2018-11-27T02:27:59.900Z,63.07
2018-11-27T02:30:28.179Z,62.81
2018-11-27T02:32:56.036Z,62.80
2018-11-27T02:35:24.865Z,62.08
2018-11-27T02:37:55.735Z,62.98
2018-11-27T02:40:23.490Z,62.85
2018-11-27T02:42:51.271Z,62.26
2018-11-27T02:45:19.986Z,62.84
2018-11-27T02:47:49.120Z,62.17
2018-11-27T02:50:18.082Z,62.06
2018-11-27T02:52:45.905Z,61.82
2018-11-27T02:55:15.111Z,62.27
2018-11-27T02:57:42.884Z,62.26
2018-11-27T03:00:13.330Z,62.79
2018-11-27T03:02:41.074Z,62.66
2018-11-27T03:05:34.276Z,62.03
2018-11-27T03:08:02.100Z,62.45
2018-11-27T03:10:29.835Z,63.25
2018-11-27T03:12:57.591Z,62.62
2018-11-27T03:15:25.318Z,62.38
2018-11-27T03:17:53.048Z,62.05
2018-11-27T03:20:20.681Z,61.84
2018-11-27T03:22:48.340Z,61.93
2018-11-27T03:25:18.333Z,61.51
2018-11-27T03:27:47.543Z,61.08
2018-11-27T03:30:17.579Z,61.32
2018-11-27T03:32:45.302Z,60.84
2018-11-27T03:35:14.313Z,61.23
2018-11-27T03:37:42.402Z,60.37
2018-11-27T03:40:16.834Z,60.55
2018-11-27T03:42:44.570Z,61.31
2018-11-27T03:45:13.454Z,61.25
2018-11-27T03:47:41.973Z,61.13
2018-11-27T03:50:13.484Z,61.45
2018-11-27T03:52:41.654Z,61.31
2018-11-27T03:55:10.910Z,61.79
2018-11-27T03:57:38.627Z,62.41
2018-11-27T04:00:15.203Z,62.82
2018-11-27T04:02:43.717Z,61.88
2018-11-27T04:05:12.432Z,61.97
2018-11-27T04:07:40.239Z,61.71
2018-11-27T04:10:12.456Z,61.97
2018-11-27T04:12:40.230Z,62.26
2018-11-27T04:15:08.102Z,62.29
2018-11-27T04:17:36.960Z,61.70
2018-11-27T04:20:06.188Z,61.90
2018-11-27T04:22:33.955Z,61.56
2018-11-27T04:25:01.624Z,61.81
2018-11-27T04:27:29.483Z,61.92
2018-11-27T04:29:57.218Z,62.04
2018-11-27T04:32:24.936Z,62.28
2018-11-27T04:34:52.621Z,62.22
2018-11-27T04:37:20.354Z,62.44
2018-11-27T04:39:48.107Z,62.40
2018-11-27T04:42:15.856Z,61.94
2018-11-27T04:44:43.635Z,62.34
2018-11-27T04:47:11.486Z,61.63
2018-11-27T04:49:39.290Z,62.28
2018-11-27T04:52:07.134Z,61.87
2018-11-27T04:54:34.929Z,61.29
2018-11-27T04:57:02.824Z,61.01
2018-11-27T04:59:30.557Z,61.37
2018-11-27T05:01:58.324Z,61.96
2018-11-27T05:04:26.129Z,61.36
2018-11-27T05:06:53.817Z,60.83
2018-11-27T05:09:22.210Z,61.36
2018-11-27T05:11:49.922Z,60.53
2018-11-27T05:14:17.758Z,60.30
2018-11-27T05:16:45.472Z,60.37
2018-11-27T05:19:13.296Z,60.10
2018-11-27T05:21:41.057Z,59.87
2018-11-27T05:24:09.036Z,60.26
2018-11-27T05:26:36.860Z,59.95
2018-11-27T05:29:05.329Z,59.44
2018-11-27T05:31:33.221Z,59.32
2018-11-27T05:34:00.964Z,59.52
2018-11-27T05:36:28.677Z,59.76
2018-11-27T05:38:56.858Z,59.48
2018-11-27T05:41:24.753Z,59.73
2018-11-27T05:43:52.530Z,59.21
2018-11-27T05:46:20.217Z,58.89
2018-11-27T05:48:47.962Z,59.69
2018-11-27T05:51:15.688Z,59.54
2018-11-27T05:53:43.376Z,60.09
2018-11-27T05:56:11.073Z,60.32
2018-11-27T05:58:38.764Z,60.83
2018-11-27T06:01:06.530Z,61.39
2018-11-27T06:03:34.207Z,60.12
2018-11-27T06:06:01.981Z,60.86
2018-11-27T06:08:29.721Z,60.55
2018-11-27T06:10:57.525Z,61.10
2018-11-27T06:13:25.201Z,60.24
2018-11-27T06:15:52.908Z,59.95
2018-11-27T06:18:20.557Z,59.66
2018-11-27T06:20:48.272Z,60.15
2018-11-27T06:23:15.995Z,60.63
2018-11-27T06:25:43.690Z,60.54
2018-11-27T06:28:11.407Z,59.79
2018-11-27T06:30:39.235Z,59.66
2018-11-27T06:33:06.972Z,59.52
2018-11-27T06:35:37.547Z,59.22
2018-11-27T06:38:07.816Z,59.48
2018-11-27T06:40:36.232Z,59.94
2018-11-27T06:43:10.278Z,59.53
2018-11-27T06:45:39.573Z,59.37
2018-11-27T06:48:07.890Z,59.55
2018-11-27T06:50:35.580Z,58.63
2018-11-27T06:53:04.158Z,59.33
2018-11-27T06:55:31.923Z,58.83
2018-11-27T06:57:59.824Z,58.77
2018-11-27T07:00:28.410Z,59.95
2018-11-27T07:02:57.344Z,58.99
2018-11-27T07:05:25.108Z,59.77
2018-11-27T07:07:52.941Z,59.50
2018-11-27T07:10:29.468Z,59.69
2018-11-27T07:13:15.717Z,58.34
2018-11-27T07:15:43.417Z,57.99
2018-11-27T07:18:11.124Z,58.38
2018-11-27T07:20:38.948Z,57.97
2018-11-27T07:23:07.132Z,57.94
2018-11-27T07:25:35.374Z,59.16
2018-11-27T07:28:03.081Z,59.03
2018-11-27T07:30:30.837Z,58.23
2018-11-27T07:32:58.658Z,57.95
2018-11-27T07:35:26.380Z,57.83
2018-11-27T07:37:54.114Z,57.09
2018-11-27T07:40:26.389Z,56.79
2018-11-27T07:42:57.757Z,57.13
2018-11-27T07:45:25.581Z,57.77
2018-11-27T07:47:53.314Z,57.94
2018-11-27T07:50:21.154Z,59.05
2018-11-27T07:52:48.917Z,58.45
2018-11-27T07:55:18.123Z,58.22
2018-11-27T07:57:45.870Z,57.92
2018-11-27T08:00:16.158Z,57.57
2018-11-27T08:02:45.893Z,57.51
2018-11-27T08:05:15.599Z,57.51
2018-11-27T08:07:47.281Z,56.77
2018-11-27T08:10:18.935Z,57.74
2018-11-27T08:12:46.659Z,57.59
2018-11-27T08:15:17.925Z,57.79
2018-11-27T08:17:45.583Z,57.50
2018-11-27T08:20:24.946Z,57.77
2018-11-27T08:22:52.656Z,57.67
2018-11-27T08:25:20.393Z,57.82
2018-11-27T08:27:48.190Z,57.69
2018-11-27T08:30:17.254Z,56.81
2018-11-27T08:32:45.139Z,57.86
2018-11-27T08:35:20.373Z,56.80
2018-11-27T08:37:49.649Z,56.76
2018-11-27T08:40:19.153Z,56.60
2018-11-27T08:42:46.888Z,56.15
2018-11-27T08:45:22.959Z,56.37
2018-11-27T08:47:52.039Z,55.01
2018-11-27T08:50:21.461Z,55.36
2018-11-27T08:52:56.699Z,56.32
2018-11-27T08:55:42.131Z,56.22
2018-11-27T08:58:17.095Z,55.39
2018-11-27T09:00:44.858Z,55.27
2018-11-27T09:03:12.585Z,54.95
2018-11-27T09:05:40.278Z,54.35
2018-11-27T09:08:08.009Z,54.33
2018-11-27T09:11:07.582Z,54.40
2018-11-27T09:13:35.351Z,54.07
2018-11-27T09:16:03.124Z,54.90
2018-11-27T09:18:38.305Z,54.40
2018-11-27T09:21:06.480Z,54.39
2018-11-27T09:23:34.302Z,54.81
2018-11-27T09:26:02.167Z,53.83
2018-11-27T09:28:29.885Z,53.77
2018-11-27T09:30:57.605Z,52.97
2018-11-27T09:33:25.285Z,52.50
2018-11-27T09:35:53.062Z,51.98
2018-11-27T09:38:22.616Z,51.89
2018-11-27T09:40:50.361Z,51.51
2018-11-27T09:43:18.295Z,51.33
2018-11-27T09:46:14.744Z,51.23
2018-11-27T09:48:42.597Z,52.07
2018-11-27T09:51:10.347Z,52.16
2018-11-27T09:53:37.997Z,51.65
2018-11-27T09:56:05.970Z,51.29
2018-11-27T09:58:33.904Z,51.27
2018-11-27T10:01:01.694Z,50.82
2018-11-27T10:03:29.466Z,51.45
2018-11-27T10:05:57.135Z,52.10
2018-11-27T10:08:24.842Z,52.08
2018-11-27T10:10:52.630Z,51.65
2018-11-27T10:13:20.347Z,50.48
2018-11-27T10:15:47.984Z,50.68
2018-11-27T10:18:15.669Z,50.01
2018-11-27T10:20:43.337Z,49.85
2018-11-27T10:23:13.304Z,50.11
2018-11-27T10:25:41.119Z,49.71
2018-11-27T10:28:08.798Z,49.13
2018-11-27T10:30:36.482Z,49.28
2018-11-27T10:33:07.006Z,48.91
2018-11-27T10:35:43.151Z,49.32
2018-11-27T10:38:10.813Z,49.37
2018-11-27T10:40:38.503Z,49.09
2018-11-27T10:43:06.220Z,49.47
2018-11-27T10:45:34.089Z,49.28
2018-11-27T10:48:01.817Z,48.34
2018-11-27T10:50:29.570Z,47.73
2018-11-27T10:52:57.336Z,47.05
2018-11-27T10:55:25.701Z,47.53
2018-11-27T10:57:53.334Z,46.34
2018-11-27T11:00:29.170Z,46.42
2018-11-27T11:03:03.203Z,45.34
2018-11-27T11:05:31.991Z,46.09
2018-11-27T11:08:00.604Z,45.64
2018-11-27T11:10:30.621Z,44.30
2018-11-27T11:12:59.076Z,42.07
2018-11-27T11:15:26.876Z,40.53
2018-11-27T11:17:54.643Z,40.02
2018-11-27T11:20:23.102Z,38.61
2018-11-27T11:22:51.486Z,38.42
2018-11-27T11:25:21.063Z,36.65
2018-11-27T11:27:52.810Z,36.01
2018-11-27T11:30:22.024Z,35.34
2018-11-27T11:32:49.780Z,33.38
2018-11-27T11:35:18.477Z,33.21
2018-11-27T11:37:46.139Z,33.65
2018-11-27T11:40:18.646Z,33.20
2018-11-27T11:42:47.784Z,33.77
2018-11-27T11:45:16.706Z,34.75
2018-11-27T11:47:45.466Z,34.59
2018-11-27T11:50:32.938Z,33.17
2018-11-27T11:53:09.383Z,32.43
2018-11-27T11:55:37.095Z,32.16
2018-11-27T11:58:06.193Z,33.89
2018-11-27T12:00:37.018Z,34.15
2018-11-27T12:03:05.974Z,35.05
2018-11-27T12:05:34.128Z,34.98
2018-11-27T12:08:01.914Z,34.74
2018-11-27T12:10:30.224Z,34.70
2018-11-27T12:12:57.928Z,34.82
2018-11-27T12:15:26.225Z,36.84
2018-11-27T12:17:56.785Z,37.16
2018-11-27T12:20:24.490Z,37.03
2018-11-27T12:22:53.007Z,38.19
2018-11-27T12:25:24.244Z,39.58
2018-11-27T12:27:49.272Z,40.71
2018-11-27T12:30:21.839Z,39.75
2018-11-27T12:32:50.521Z,40.24
2018-11-27T12:35:19.705Z,39.50
2018-11-27T12:37:47.402Z,39.01
2018-11-27T12:40:23.719Z,39.67
2018-11-27T12:42:53.981Z,39.58
2018-11-27T12:45:24.110Z,40.78
2018-11-27T12:47:52.645Z,40.26
2018-11-27T12:50:24.796Z,39.67
2018-11-27T12:52:53.330Z,42.19
2018-11-27T12:55:22.711Z,44.18
2018-11-27T12:57:50.457Z,45.12
2018-11-27T13:00:22.035Z,45.67
2018-11-27T13:02:50.537Z,45.90
2018-11-27T13:05:26.948Z,46.04
2018-11-27T13:07:59.290Z,46.04
2018-11-27T13:10:26.967Z,47.53
2018-11-27T13:12:54.695Z,46.70
2018-11-27T13:15:22.462Z,46.13
2018-11-27T13:17:52.889Z,46.78
2018-11-27T13:20:20.745Z,46.91
2018-11-27T13:22:49.973Z,46.99
2018-11-27T13:25:20.068Z,47.75
2018-11-27T13:27:48.861Z,48.17
2018-11-27T13:30:29.079Z,48.16
2018-11-27T13:33:03.762Z,48.62
2018-11-27T13:35:31.522Z,48.23
2018-11-27T13:38:00.174Z,48.06
2018-11-27T13:40:27.898Z,48.80
2018-11-27T13:42:55.611Z,48.97
2018-11-27T13:45:24.083Z,48.76
2018-11-27T13:47:51.751Z,48.40
2018-11-27T13:50:19.477Z,48.90
2018-11-27T13:52:47.693Z,49.03
2018-11-27T13:55:18.769Z,48.41
2018-11-27T13:57:47.958Z,49.34
2018-11-27T14:00:18.887Z,49.64
2018-11-27T14:02:48.987Z,49.68
2018-11-27T14:05:19.286Z,49.83
2018-11-27T14:07:47.023Z,49.64
2018-11-27T14:10:15.681Z,50.68
2018-11-27T14:12:44.479Z,51.14
2018-11-27T14:15:21.635Z,52.19
2018-11-27T14:17:51.061Z,52.82
2018-11-27T14:20:18.914Z,52.56
2018-11-27T14:22:48.555Z,54.66
2018-11-27T14:25:16.380Z,54.98
2018-11-27T14:27:44.605Z,54.82
2018-11-27T14:30:18.394Z,54.26
2018-11-27T14:32:48.024Z,54.05
2018-11-27T14:35:17.001Z,55.01
2018-11-27T14:37:46.110Z,55.30
2018-11-27T14:40:16.396Z,55.34
2018-11-27T14:42:44.989Z,55.41
2018-11-27T14:45:17.246Z,55.62
2018-11-27T14:47:46.940Z,55.31
2018-11-27T14:50:14.814Z,56.19
2018-11-27T14:52:43.404Z,56.52
2018-11-27T14:55:16.199Z,57.56
2018-11-27T14:57:44.115Z,57.32
2018-11-27T15:00:14.682Z,57.17
2018-11-27T15:02:43.223Z,58.19
2018-11-27T15:05:13.594Z,56.87
2018-11-27T15:07:42.899Z,57.34
2018-11-27T15:10:11.907Z,57.24
2018-11-27T15:12:40.175Z,57.85
2018-11-27T15:15:11.150Z,57.65
2018-11-27T15:17:39.518Z,57.97
2018-11-27T15:20:14.100Z,57.81
2018-11-27T15:22:41.861Z,57.76
2018-11-27T15:25:10.510Z,57.97
2018-11-27T15:27:38.742Z,57.61
2018-11-27T15:30:14.134Z,58.36
2018-11-27T15:32:42.266Z,58.38
2018-11-27T15:35:12.195Z,58.38
2018-11-27T15:37:40.693Z,57.52
2018-11-27T15:40:13.007Z,57.86
2018-11-27T15:42:42.542Z,58.70
2018-11-27T15:45:21.201Z,58.72
2018-11-27T15:47:49.193Z,58.18
2018-11-27T15:50:17.160Z,58.76
2018-11-27T15:52:44.949Z,59.04
2018-11-27T15:55:18.321Z,59.05
2018-11-27T15:57:47.720Z,59.67
2018-11-27T16:00:17.617Z,59.69
2018-11-27T16:02:45.687Z,59.53
2018-11-27T16:05:14.253Z,59.79
2018-11-27T16:07:42.015Z,59.82
2018-11-27T16:10:13.299Z,59.47
2018-11-27T16:12:41.037Z,59.58
2018-11-27T16:15:15.355Z,60.27
2018-11-27T16:17:43.507Z,60.55
2018-11-27T16:20:14.880Z,59.88
2018-11-27T16:22:42.577Z,61.16
2018-11-27T16:25:13.002Z,61.16
2018-11-27T16:27:40.815Z,61.86
2018-11-27T16:30:14.139Z,62.17
2018-11-27T16:32:41.875Z,61.76
2018-11-27T16:35:11.166Z,61.05
2018-11-27T16:37:39.402Z,61.27
2018-11-27T16:40:14.081Z,62.09
2018-11-27T16:42:41.793Z,61.80
2018-11-27T16:45:14.313Z,62.76
2018-11-27T16:47:42.762Z,62.94
2018-11-27T16:50:12.166Z,62.42
2018-11-27T16:52:40.028Z,62.45
2018-11-27T16:55:10.898Z,62.39
2018-11-27T16:57:38.748Z,62.33
2018-11-27T17:00:25.982Z,62.68
2018-11-27T17:02:57.202Z,62.36
2018-11-27T17:05:26.699Z,61.90
2018-11-27T17:07:54.517Z,62.24
2018-11-27T17:10:22.370Z,62.01
2018-11-27T17:12:52.885Z,62.36
2018-11-27T17:15:22.702Z,62.15
2018-11-27T17:17:50.439Z,62.70
2018-11-27T17:20:35.293Z,62.68
2018-11-27T17:23:09.419Z,63.24
2018-11-27T17:25:37.226Z,63.23
2018-11-27T17:28:23.419Z,63.33
2018-11-27T17:31:24.102Z,63.10
2018-11-27T17:34:01.391Z,62.93
2018-11-27T17:36:29.100Z,64.09
2018-11-27T17:38:57.195Z,64.51
2018-11-27T17:41:24.946Z,64.40
2018-11-27T17:43:53.587Z,63.76
2018-11-27T17:46:20.708Z,62.74
2018-11-27T17:48:48.496Z,63.00
2018-11-27T17:51:16.577Z,63.42
2018-11-27T17:53:44.347Z,63.07
2018-11-27T17:56:12.248Z,63.38
2018-11-27T17:58:40.018Z,63.87
2018-11-27T18:01:07.935Z,63.68
2018-11-27T18:03:36.057Z,63.81
2018-11-27T18:06:03.897Z,63.57
2018-11-27T18:08:31.746Z,63.31
2018-11-27T18:10:59.469Z,64.13
2018-11-27T18:13:27.230Z,64.47
2018-11-27T18:15:54.924Z,64.32
2018-11-27T18:18:23.422Z,65.00
2018-11-27T18:20:51.147Z,65.23
2018-11-27T18:23:18.958Z,65.59
2018-11-27T18:25:46.695Z,65.13
2018-11-27T18:28:14.492Z,65.45
2018-11-27T18:30:42.201Z,65.97
2018-11-27T18:33:09.853Z,66.16
2018-11-27T18:35:38.067Z,66.08
2018-11-27T18:38:14.844Z,66.33
2018-11-27T18:40:43.981Z,66.11
2018-11-27T18:43:11.707Z,66.19
2018-11-27T18:45:39.340Z,66.36
2018-11-27T18:48:07.084Z,66.75
2018-11-27T18:50:35.811Z,66.42
2018-11-27T18:53:04.021Z,66.46
2018-11-27T18:55:31.820Z,66.23
2018-11-27T18:58:06.347Z,66.35
2018-11-27T19:00:34.449Z,66.62
2018-11-27T19:03:02.501Z,66.48
2018-11-27T19:05:30.736Z,66.81
2018-11-27T19:07:58.461Z,67.39
2018-11-27T19:10:29.543Z,67.52
2018-11-27T19:12:57.493Z,67.58
2018-11-27T19:15:47.092Z,67.98
2018-11-27T19:18:25.969Z,68.52
2018-11-27T19:20:53.798Z,68.40
2018-11-27T19:23:23.686Z,68.84
2018-11-27T19:25:51.309Z,68.78
2018-11-27T19:28:19.003Z,68.33
2018-11-27T19:30:47.524Z,68.51
2018-11-27T19:33:15.397Z,68.68
2018-11-27T19:35:43.393Z,68.78
2018-11-27T19:38:14.243Z,69.26
2018-11-27T19:40:42.603Z,69.39
2018-11-27T19:43:11.057Z,68.90
2018-11-27T19:45:42.241Z,69.46
2018-11-27T19:48:13.939Z,70.02
2018-11-27T19:50:45.520Z,69.73
2018-11-27T19:53:33.968Z,70.25
2018-11-27T19:56:10.553Z,69.81
2018-11-27T19:58:44.081Z,70.23
2018-11-27T20:01:14.255Z,69.73
2018-11-27T20:03:42.210Z,69.77
2018-11-27T20:06:10.384Z,69.80
2018-11-27T20:08:38.191Z,69.46
2018-11-27T20:11:06.202Z,69.58
2018-11-27T20:13:34.161Z,69.84
2018-11-27T20:16:02.037Z,70.27
2018-11-27T20:18:29.909Z,70.70
2018-11-27T20:20:57.750Z,70.45
2018-11-27T20:23:25.658Z,70.15
2018-11-27T20:25:53.543Z,70.69
2018-11-27T20:28:22.375Z,70.38
2018-11-27T20:30:50.300Z,70.67
2018-11-27T20:33:18.063Z,70.05
2018-11-27T20:35:46.396Z,70.25
2018-11-27T20:38:14.133Z,70.09
2018-11-27T20:40:42.242Z,69.78
2018-11-27T20:43:10.638Z,69.63
2018-11-27T20:45:38.362Z,69.94
2018-11-27T20:48:23.915Z,69.87
2018-11-27T20:50:52.443Z,70.41
2018-11-27T20:53:20.429Z,69.89
2018-11-27T20:55:48.945Z,69.85
2018-11-27T20:58:16.750Z,70.19
2018-11-27T21:00:46.966Z,69.58
2018-11-27T21:03:16.001Z,70.04
2018-11-27T21:05:43.865Z,70.45
2018-11-27T21:08:16.369Z,70.98
2018-11-27T21:10:44.301Z,71.37
2018-11-27T21:13:13.469Z,70.86
2018-11-27T21:15:43.783Z,71.35
2018-11-27T21:18:12.851Z,70.50
2018-11-27T21:20:44.346Z,70.76
2018-11-27T21:23:13.234Z,71.11
2018-11-27T21:25:42.845Z,71.09
2018-11-27T21:28:15.118Z,71.23
2018-11-27T21:30:46.076Z,71.63
2018-11-27T21:33:15.394Z,71.88
2018-11-27T21:35:43.455Z,71.92
2018-11-27T21:38:15.480Z,72.38
2018-11-27T21:40:44.479Z,72.32
2018-11-27T21:43:15.969Z,71.94
2018-11-27T21:45:46.554Z,71.25
2018-11-27T21:48:15.173Z,71.65
2018-11-27T21:50:43.650Z,71.42
2018-11-27T21:53:12.334Z,71.41
2018-11-27T21:55:41.361Z,71.09
2018-11-27T21:58:09.293Z,71.30
2018-11-27T22:00:39.434Z,71.15
2018-11-27T22:03:07.975Z,71.37
2018-11-27T22:05:36.069Z,71.79
2018-11-27T22:08:05.543Z,70.95
2018-11-27T22:10:33.969Z,71.05
2018-11-27T22:13:01.725Z,70.66
2018-11-27T22:15:34.647Z,70.83
2018-11-27T22:18:03.789Z,71.10
2018-11-27T22:20:31.457Z,71.34
2018-11-27T22:22:59.135Z,71.20
2018-11-27T22:25:27.086Z,71.71
2018-11-27T22:27:54.862Z,71.22
2018-11-27T22:30:22.727Z,71.20
2018-11-27T22:32:53.092Z,70.76
2018-11-27T22:35:21.234Z,71.36
2018-11-27T22:37:48.880Z,70.70
2018-11-27T22:40:18.336Z,70.46
2018-11-27T22:42:46.836Z,70.45
2018-11-27T22:45:35.317Z,70.98
2018-11-27T22:48:03.093Z,71.40
2018-11-27T22:50:31.016Z,71.11
2018-11-27T22:52:58.990Z,71.45
2018-11-27T22:55:27.023Z,71.69
2018-11-27T22:57:54.698Z,71.81
2018-11-27T23:00:32.523Z,71.29
2018-11-27T23:03:00.471Z,70.92
2018-11-27T23:05:28.299Z,70.65
2018-11-27T23:07:56.108Z,71.62
2018-11-27T23:10:26.632Z,71.34
2018-11-27T23:12:54.412Z,71.23
2018-11-27T23:15:22.153Z,70.63
2018-11-27T23:17:49.859Z,71.20
2018-11-27T23:20:18.371Z,71.42
2018-11-27T23:22:46.166Z,70.88
2018-11-27T23:25:15.321Z,71.30
2018-11-27T23:27:42.967Z,70.96
2018-11-27T23:30:21.081Z,71.75
2018-11-27T23:32:48.825Z,71.68
2018-11-27T23:35:16.841Z,71.37
2018-11-27T23:37:44.548Z,70.97
2018-11-27T23:40:15.033Z,71.02
2018-11-27T23:42:43.068Z,70.85
2018-11-27T23:45:15.028Z,70.34
2018-11-27T23:47:42.702Z,70.38
2018-11-27T23:50:12.890Z,70.13
2018-11-27T23:52:40.834Z,69.98
2018-11-27T23:55:09.933Z,69.92
2018-11-27T23:57:37.842Z,70.36
